createdAt,value
2022-08-11T00:01:52.212Z,22.17
2022-08-11T00:04:20.915Z,22.15
2022-08-11T00:06:48.659Z,22.15
2022-08-11T00:09:17.651Z,22.13
2022-08-11T00:11:46.871Z,22.12
2022-08-11T00:14:16.595Z,22.11
2022-08-11T00:16:54.186Z,22.10
2022-08-11T00:20:14.239Z,22.08
2022-08-11T00:22:10.941Z,22.07
2022-08-11T00:24:53.886Z,22.06
2022-08-11T00:27:32.331Z,22.04
2022-08-11T00:29:58.958Z,22.03
2022-08-11T00:32:28.441Z,22.03
2022-08-11T00:35:51.968Z,22.01
2022-08-11T00:37:47.384Z,22.01
2022-08-11T00:40:23.218Z,21.98
2022-08-11T00:43:01.270Z,21.96
2022-08-11T00:45:31.695Z,21.95
2022-08-11T00:48:06.983Z,21.95
2022-08-11T00:50:49.242Z,21.91
2022-08-11T00:53:34.542Z,21.92
2022-08-11T00:56:22.165Z,21.90
2022-08-11T00:59:34.187Z,21.88
2022-08-11T01:02:14.993Z,21.87
2022-08-11T01:05:03.387Z,21.87
2022-08-11T01:08:01.662Z,21.86
2022-08-11T01:10:55.210Z,21.86
2022-08-11T01:13:52.490Z,21.83
2022-08-11T01:16:50.928Z,21.83
2022-08-11T01:20:48.123Z,21.80
2022-08-11T01:23:07.470Z,21.78
2022-08-11T01:26:00.275Z,21.79
2022-08-11T01:28:56.424Z,21.78
2022-08-11T01:31:49.281Z,21.74
2022-08-11T01:34:48.481Z,21.73
2022-08-11T01:37:51.178Z,21.72
2022-08-11T01:40:42.103Z,21.71
2022-08-11T01:43:35.158Z,21.70
2022-08-11T01:46:06.985Z,21.68
2022-08-11T01:48:41.454Z,21.68
2022-08-11T01:51:19.451Z,21.67
2022-08-11T01:53:54.827Z,21.65
2022-08-11T01:56:34.230Z,21.64
2022-08-11T01:59:13.181Z,21.63
2022-08-11T02:01:57.611Z,21.60
2022-08-11T02:04:33.113Z,21.60
2022-08-11T02:07:10.268Z,21.59
2022-08-11T02:09:54.139Z,21.59
2022-08-11T02:12:39.181Z,21.58
2022-08-11T02:15:15.530Z,21.58
2022-08-11T02:17:57.040Z,21.56
2022-08-11T02:20:27.583Z,21.56
2022-08-11T02:23:01.094Z,21.54
2022-08-11T02:25:36.142Z,21.53
2022-08-11T02:28:10.254Z,21.52
2022-08-11T02:31:00.174Z,21.50
2022-08-11T02:33:30.796Z,21.47
2022-08-11T02:36:06.190Z,21.47
2022-08-11T02:38:40.402Z,21.44
2022-08-11T02:41:15.342Z,21.44
2022-08-11T02:43:52.613Z,21.45
2022-08-11T02:46:24.474Z,21.43
2022-08-11T02:48:59.593Z,21.43
2022-08-11T02:51:35.067Z,21.41
2022-08-11T02:54:08.418Z,21.40
2022-08-11T02:56:45.087Z,21.37
2022-08-11T02:59:23.391Z,21.37
2022-08-11T03:02:04.838Z,21.35
2022-08-11T03:04:40.743Z,21.35
2022-08-11T03:07:29.112Z,21.33
2022-08-11T03:10:05.509Z,21.33
2022-08-11T03:12:44.510Z,21.35
2022-08-11T03:15:16.357Z,21.32
2022-08-11T03:17:59.090Z,21.31
2022-08-11T03:20:38.280Z,21.32
2022-08-11T03:23:19.860Z,21.30
2022-08-11T03:25:54.801Z,21.27
2022-08-11T03:28:28.689Z,21.27
2022-08-11T03:31:06.712Z,21.26
2022-08-11T03:33:37.121Z,21.27
2022-08-11T03:36:12.660Z,21.25
2022-08-11T03:38:52.821Z,21.22
2022-08-11T03:42:02.853Z,21.20
2022-08-11T03:44:33.100Z,21.19
2022-08-11T03:47:15.197Z,21.14
2022-08-11T03:50:00.694Z,21.14
2022-08-11T03:52:43.769Z,21.13
2022-08-11T03:55:19.629Z,21.14
2022-08-11T03:58:15.388Z,21.14
2022-08-11T04:01:13.035Z,21.13
2022-08-11T04:03:57.559Z,21.14
2022-08-11T04:06:51.028Z,21.10
2022-08-11T04:09:45.390Z,21.12
2022-08-11T04:12:36.150Z,21.10
2022-08-11T04:15:28.975Z,21.07
2022-08-11T04:18:25.117Z,21.05
2022-08-11T04:21:15.060Z,21.06
2022-08-11T04:24:35.915Z,21.02
2022-08-11T04:27:20.422Z,21.02
2022-08-11T04:30:05.235Z,21.05
2022-08-11T04:32:56.573Z,21.04
2022-08-11T04:35:34.442Z,21.02
2022-08-11T04:38:23.584Z,21.00
2022-08-11T04:41:11.566Z,20.97
2022-08-11T04:44:06.775Z,20.97
2022-08-11T04:46:57.088Z,20.98
2022-08-11T04:49:53.275Z,20.95
2022-08-11T04:52:37.632Z,20.95
2022-08-11T04:55:26.183Z,20.93
2022-08-11T04:58:04.437Z,20.93
2022-08-11T05:00:41.846Z,20.90
2022-08-11T05:03:30.049Z,20.89
2022-08-11T05:06:22.419Z,20.90
2022-08-11T05:09:08.023Z,20.88
2022-08-11T05:11:58.008Z,20.86
2022-08-11T05:14:34.899Z,20.87
2022-08-11T05:17:11.595Z,20.87
2022-08-11T05:19:38.536Z,20.85
2022-08-11T05:22:08.794Z,20.86
2022-08-11T05:24:42.248Z,20.85
2022-08-11T05:27:14.197Z,20.85
2022-08-11T05:29:44.582Z,20.84
2022-08-11T05:32:13.472Z,20.85
2022-08-11T05:34:44.121Z,20.84
2022-08-11T05:37:26.716Z,20.82
2022-08-11T05:39:59.578Z,20.83
2022-08-11T05:42:30.055Z,20.84
2022-08-11T05:45:15.603Z,20.84
2022-08-11T05:47:42.872Z,20.84
2022-08-11T05:50:13.606Z,20.83
2022-08-11T05:52:47.029Z,20.84
2022-08-11T05:55:15.827Z,20.85
2022-08-11T05:57:51.263Z,20.83
2022-08-11T06:00:19.217Z,20.85
2022-08-11T06:02:50.006Z,20.85
2022-08-11T06:05:19.525Z,20.85
2022-08-11T06:07:49.516Z,20.87
2022-08-11T06:10:26.563Z,20.86
2022-08-11T06:12:55.115Z,20.87
2022-08-11T06:15:22.016Z,20.87
2022-08-11T06:17:49.132Z,20.87
2022-08-11T06:20:18.084Z,20.86
2022-08-11T06:22:49.733Z,20.88
2022-08-11T06:25:19.914Z,20.87
2022-08-11T06:27:54.154Z,20.89
2022-08-11T06:30:33.818Z,20.88
2022-08-11T06:33:01.609Z,20.89
2022-08-11T06:35:37.953Z,20.90
2022-08-11T06:38:07.846Z,20.91
2022-08-11T06:40:41.734Z,20.91
2022-08-11T06:43:17.503Z,20.91
2022-08-11T06:45:53.602Z,20.92
2022-08-11T06:48:23.436Z,20.93
2022-08-11T06:50:52.372Z,20.94
2022-08-11T06:53:20.918Z,20.95
2022-08-11T06:55:57.562Z,20.96
2022-08-11T06:58:28.645Z,20.96
2022-08-11T07:00:58.818Z,20.98
2022-08-11T07:03:28.454Z,21.00
2022-08-11T07:06:05.304Z,21.02
2022-08-11T07:08:58.523Z,21.03
2022-08-11T07:11:52.986Z,21.05
2022-08-11T07:14:23.054Z,21.05
2022-08-11T07:16:52.828Z,21.06
2022-08-11T07:19:24.272Z,21.08
2022-08-11T07:22:02.481Z,21.08
2022-08-11T07:24:59.683Z,21.08
2022-08-11T07:27:25.232Z,21.08
2022-08-11T07:29:53.342Z,21.09
2022-08-11T07:32:26.783Z,21.11
2022-08-11T07:34:59.157Z,21.13
2022-08-11T07:37:29.007Z,21.12
2022-08-11T07:39:58.445Z,21.12
2022-08-11T07:42:31.569Z,21.11
2022-08-11T07:44:59.556Z,21.12
2022-08-11T07:47:28.781Z,21.15
2022-08-11T07:49:55.415Z,21.16
2022-08-11T07:52:23.337Z,21.18
2022-08-11T07:54:51.353Z,21.19
2022-08-11T07:57:48.264Z,21.20
2022-08-11T08:00:06.049Z,21.23
2022-08-11T08:02:39.363Z,21.23
2022-08-11T08:05:06.585Z,21.25
2022-08-11T08:07:33.816Z,21.26
2022-08-11T08:10:00.569Z,21.27
2022-08-11T08:12:27.583Z,21.27
2022-08-11T08:14:55.753Z,21.29
2022-08-11T08:17:23.315Z,21.30
2022-08-11T08:19:51.073Z,21.30
2022-08-11T08:22:38.209Z,21.32
2022-08-11T08:25:06.877Z,21.34
2022-08-11T08:27:35.290Z,21.34
2022-08-11T08:30:02.382Z,21.35
2022-08-11T08:32:30.257Z,21.35
2022-08-11T08:34:58.574Z,21.37
2022-08-11T08:37:45.506Z,21.38
2022-08-11T08:40:15.353Z,21.39
2022-08-11T08:42:47.558Z,21.40
2022-08-11T08:45:14.855Z,21.41
2022-08-11T08:47:51.158Z,21.43
2022-08-11T08:50:27.898Z,21.44
2022-08-11T08:53:04.703Z,21.46
2022-08-11T08:55:32.922Z,21.47
2022-08-11T08:58:00.907Z,21.48
2022-08-11T09:00:39.561Z,21.50
2022-08-11T09:03:36.056Z,21.50
2022-08-11T09:05:55.595Z,21.51
2022-08-11T09:08:23.228Z,21.53
2022-08-11T09:10:50.519Z,21.54
2022-08-11T09:13:17.048Z,21.54
2022-08-11T09:15:45.512Z,21.54
2022-08-11T09:18:12.512Z,21.55
2022-08-11T09:20:39.755Z,21.57
2022-08-11T09:25:58.178Z,21.59
2022-08-11T09:28:27.547Z,21.62
2022-08-11T09:30:54.287Z,21.63
2022-08-11T09:33:23.086Z,21.64
2022-08-11T09:35:51.674Z,21.64
2022-08-11T09:38:24.118Z,21.65
2022-08-11T09:40:57.150Z,21.65
2022-08-11T09:43:25.034Z,21.66
2022-08-11T09:45:53.607Z,21.66
2022-08-11T09:48:21.507Z,21.66
2022-08-11T09:50:50.118Z,21.68
2022-08-11T09:53:35.996Z,21.68
2022-08-11T09:56:10.992Z,21.69
2022-08-11T09:58:42.323Z,21.73
2022-08-11T10:01:11.361Z,21.74
2022-08-11T10:03:42.032Z,21.75
2022-08-11T10:06:10.515Z,21.79
2022-08-11T10:08:40.588Z,21.80
2022-08-11T10:11:12.085Z,21.80
2022-08-11T10:14:32.825Z,21.82
2022-08-11T10:16:37.122Z,21.82
2022-08-11T10:19:04.506Z,21.85
2022-08-11T10:21:38.658Z,21.88
2022-08-11T10:24:06.869Z,21.89
2022-08-11T10:26:34.951Z,21.88
2022-08-11T10:29:12.998Z,21.87
2022-08-11T10:31:52.935Z,21.87
2022-08-11T10:34:24.717Z,21.88
2022-08-11T10:36:54.898Z,21.91
2022-08-11T10:39:22.773Z,21.95
2022-08-11T10:42:06.436Z,21.96
2022-08-11T10:44:39.834Z,21.98
2022-08-11T10:47:07.550Z,21.98
2022-08-11T10:49:34.562Z,22.01
2022-08-11T10:52:01.968Z,21.98
2022-08-11T10:54:28.811Z,21.99
2022-08-11T10:56:57.401Z,22.02
2022-08-11T10:59:27.828Z,22.04
2022-08-11T11:01:55.158Z,22.04
2022-08-11T11:04:28.986Z,22.05
2022-08-11T11:07:05.554Z,22.07
2022-08-11T11:09:34.801Z,22.09
2022-08-11T11:12:19.684Z,22.11
2022-08-11T11:14:49.173Z,22.06
2022-08-11T11:17:26.262Z,22.08
2022-08-11T11:19:57.686Z,22.09
2022-08-11T11:22:28.088Z,22.07
2022-08-11T11:25:04.087Z,22.05
2022-08-11T11:27:46.623Z,22.06
2022-08-11T11:30:14.694Z,22.05
2022-08-11T11:32:51.590Z,22.06
2022-08-11T11:35:30.474Z,22.10
2022-08-11T11:38:04.309Z,22.12
2022-08-11T11:40:32.449Z,22.12
2022-08-11T11:43:01.435Z,22.16
2022-08-11T11:45:28.524Z,22.20
2022-08-11T11:47:57.499Z,22.20
2022-08-11T11:50:31.497Z,22.13
2022-08-11T11:53:00.205Z,22.17
2022-08-11T11:55:28.022Z,22.20
2022-08-11T11:57:59.201Z,22.19
2022-08-11T12:00:33.843Z,22.21
2022-08-11T12:03:03.365Z,22.22
2022-08-11T12:05:33.427Z,22.24
2022-08-11T12:08:05.211Z,22.26
2022-08-11T12:10:41.170Z,22.23
2022-08-11T12:13:07.855Z,22.22
2022-08-11T12:16:32.360Z,22.23
2022-08-11T12:18:24.313Z,22.18
2022-08-11T12:20:51.210Z,22.21
2022-08-11T12:23:17.926Z,22.14
2022-08-11T12:25:45.367Z,22.15
2022-08-11T12:28:12.994Z,22.18
2022-08-11T12:33:08.208Z,22.11
2022-08-11T12:35:36.845Z,22.16
2022-08-11T12:38:10.900Z,22.20
2022-08-11T12:41:11.876Z,22.18
2022-08-11T12:43:37.094Z,22.24
2022-08-11T12:46:16.436Z,22.23
2022-08-11T12:49:01.119Z,22.21
2022-08-11T12:51:33.462Z,22.26
2022-08-11T12:54:26.799Z,22.27
2022-08-11T12:56:59.852Z,22.30
2022-08-11T12:59:26.970Z,22.29
2022-08-11T13:01:55.178Z,22.30
2022-08-11T13:04:21.724Z,22.31
2022-08-11T13:06:48.963Z,22.28
2022-08-11T13:09:15.585Z,22.29
2022-08-11T13:11:56.698Z,22.33
2022-08-11T13:14:25.930Z,22.30
2022-08-11T13:16:53.320Z,22.28
2022-08-11T13:19:22.640Z,22.31
2022-08-11T13:21:50.690Z,22.30
2022-08-11T13:24:18.323Z,22.23
2022-08-11T13:26:48.775Z,22.18
2022-08-11T13:29:20.253Z,22.19
2022-08-11T13:31:47.795Z,22.18
2022-08-11T13:34:16.067Z,22.21
2022-08-11T13:36:44.989Z,22.21
2022-08-11T13:39:13.285Z,22.28
2022-08-11T13:41:42.909Z,22.33
2022-08-11T13:44:15.886Z,22.35
2022-08-11T13:46:45.964Z,22.35
2022-08-11T13:49:16.664Z,22.34
2022-08-11T13:51:44.985Z,22.25
2022-08-11T13:54:17.477Z,22.23
2022-08-11T13:56:46.823Z,22.16
2022-08-11T13:59:15.182Z,22.22
2022-08-11T14:02:20.730Z,22.29
2022-08-11T14:04:39.585Z,22.36
2022-08-11T14:07:10.243Z,22.40
2022-08-11T14:09:39.557Z,22.39
2022-08-11T14:12:21.427Z,22.34
2022-08-11T14:14:55.369Z,22.32
2022-08-11T14:17:36.004Z,22.33
2022-08-11T14:20:38.463Z,22.29
2022-08-11T14:23:04.205Z,22.30
2022-08-11T14:26:00.157Z,22.30
2022-08-11T14:28:33.639Z,22.30
2022-08-11T14:31:04.300Z,22.33
2022-08-11T14:33:58.618Z,22.31
2022-08-11T14:36:21.319Z,22.33
2022-08-11T14:38:49.933Z,22.33
2022-08-11T14:41:18.590Z,22.33
2022-08-11T14:44:12.558Z,22.36
2022-08-11T14:46:33.611Z,22.38
2022-08-11T14:49:00.551Z,22.43
2022-08-11T14:51:28.105Z,22.49
2022-08-11T14:53:58.707Z,22.52
2022-08-11T14:56:25.601Z,22.57
2022-08-11T14:58:52.291Z,22.59
2022-08-11T15:01:19.260Z,22.60
2022-08-11T15:04:34.621Z,22.61
2022-08-11T15:06:33.348Z,22.63
2022-08-11T15:09:04.661Z,22.64
2022-08-11T15:11:33.529Z,22.68
2022-08-11T15:14:02.147Z,22.67
2022-08-11T15:16:29.621Z,22.70
2022-08-11T15:18:57.118Z,22.71
2022-08-11T15:21:23.677Z,22.73
2022-08-11T15:23:50.271Z,22.75
2022-08-11T15:26:22.684Z,22.74
2022-08-11T15:28:50.970Z,22.77
2022-08-11T15:31:19.802Z,22.78
2022-08-11T15:33:50.321Z,22.77
2022-08-11T15:36:16.806Z,22.78
2022-08-11T15:38:48.938Z,22.82
2022-08-11T15:41:28.448Z,22.84
2022-08-11T15:43:56.361Z,22.84
2022-08-11T15:46:29.525Z,22.85
2022-08-11T15:48:59.195Z,22.89
2022-08-11T15:51:33.198Z,22.95
2022-08-11T15:54:09.465Z,22.98
2022-08-11T15:56:40.285Z,23.00
2022-08-11T15:59:13.725Z,23.02
2022-08-11T16:01:57.347Z,23.03
2022-08-11T16:04:27.360Z,23.05
2022-08-11T16:06:57.674Z,23.05
2022-08-11T16:09:37.599Z,23.05
2022-08-11T16:12:19.656Z,23.05
2022-08-11T16:14:51.528Z,23.06
2022-08-11T16:17:20.680Z,23.06
2022-08-11T16:19:51.408Z,23.09
2022-08-11T16:22:22.030Z,23.08
2022-08-11T16:27:02.081Z,23.08
2022-08-11T16:27:42.468Z,23.12
2022-08-11T16:30:10.372Z,23.13
2022-08-11T16:32:40.224Z,23.15
2022-08-11T16:35:10.756Z,23.16
2022-08-11T16:37:38.812Z,23.17
2022-08-11T16:40:06.809Z,23.17
2022-08-11T16:43:04.361Z,23.20
2022-08-11T16:45:22.092Z,23.21
2022-08-11T16:48:33.128Z,23.20
2022-08-11T16:50:38.429Z,23.20
2022-08-11T16:53:05.131Z,23.22
2022-08-11T16:55:52.080Z,23.22
2022-08-11T16:58:20.807Z,23.27
2022-08-11T17:00:50.843Z,23.31
2022-08-11T17:03:18.937Z,23.31
2022-08-11T17:05:53.879Z,23.32
2022-08-11T17:08:25.913Z,23.33
2022-08-11T17:11:00.193Z,23.34
2022-08-11T17:13:35.311Z,23.36
2022-08-11T17:16:05.876Z,23.34
2022-08-11T17:18:36.003Z,23.35
2022-08-11T17:21:03.814Z,23.37
2022-08-11T17:23:31.961Z,23.37
2022-08-11T17:26:04.354Z,23.39
2022-08-11T17:28:34.263Z,23.39
2022-08-11T17:31:03.150Z,23.40
2022-08-11T17:33:45.370Z,23.41
2022-08-11T17:36:13.073Z,23.42
2022-08-11T17:38:41.458Z,23.44
2022-08-11T17:41:09.238Z,23.44
2022-08-11T17:43:36.737Z,23.46
2022-08-11T17:46:04.759Z,23.46
2022-08-11T17:48:37.324Z,23.43
2022-08-11T17:51:18.450Z,23.42
2022-08-11T17:54:10.031Z,23.43
2022-08-11T17:56:34.727Z,23.44
2022-08-11T17:59:02.080Z,23.43
2022-08-11T18:01:31.682Z,23.41
2022-08-11T18:03:58.882Z,23.42
2022-08-11T18:06:32.636Z,23.43
2022-08-11T18:09:02.002Z,23.43
2022-08-11T18:12:10.186Z,23.44
2022-08-11T18:14:19.540Z,23.46
2022-08-11T18:16:47.566Z,23.44
2022-08-11T18:19:14.608Z,23.44
2022-08-11T18:21:43.604Z,23.44
2022-08-11T18:24:13.320Z,23.45
2022-08-11T18:26:43.645Z,23.42
2022-08-11T18:29:11.716Z,23.43
2022-08-11T18:31:43.916Z,23.42
2022-08-11T18:34:16.197Z,23.41
2022-08-11T18:36:48.096Z,23.41
2022-08-11T18:39:16.470Z,23.43
2022-08-11T18:41:47.041Z,23.43
2022-08-11T18:44:17.592Z,23.42
2022-08-11T18:46:46.758Z,23.42
2022-08-11T18:49:22.095Z,23.41
2022-08-11T18:51:52.390Z,23.42
2022-08-11T18:54:21.036Z,23.40
2022-08-11T18:56:48.279Z,23.41
2022-08-11T18:59:19.740Z,23.38
2022-08-11T19:01:46.923Z,23.38
2022-08-11T19:04:17.425Z,23.37
2022-08-11T19:06:49.818Z,23.38
2022-08-11T19:09:18.060Z,23.37
2022-08-11T19:11:47.935Z,23.37
2022-08-11T19:14:19.099Z,23.37
2022-08-11T19:16:46.819Z,23.37
2022-08-11T19:19:15.385Z,23.36
2022-08-11T19:21:42.419Z,23.34
2022-08-11T19:24:10.902Z,23.33
2022-08-11T19:26:39.788Z,23.33
2022-08-11T19:29:08.380Z,23.32
2022-08-11T19:31:42.323Z,23.32
2022-08-11T19:34:11.691Z,23.31
2022-08-11T19:36:39.143Z,23.31
2022-08-11T19:39:06.749Z,23.30
2022-08-11T19:41:56.914Z,23.30
2022-08-11T19:44:22.375Z,23.30
2022-08-11T19:46:50.787Z,23.30
2022-08-11T19:49:19.022Z,23.27
2022-08-11T19:51:46.679Z,23.27
2022-08-11T19:54:15.219Z,23.26
2022-08-11T19:56:45.057Z,23.25
2022-08-11T19:59:12.432Z,23.24
2022-08-11T20:02:12.809Z,23.23
2022-08-11T20:04:27.056Z,23.23
2022-08-11T20:06:54.622Z,23.24
2022-08-11T20:09:22.322Z,23.25
2022-08-11T20:11:55.104Z,23.25
2022-08-11T20:14:24.159Z,23.25
2022-08-11T20:16:52.419Z,23.23
2022-08-11T20:19:26.247Z,23.23
2022-08-11T20:22:08.536Z,23.23
2022-08-11T20:24:38.542Z,23.22
2022-08-11T20:27:24.779Z,23.21
2022-08-11T20:29:53.597Z,23.21
2022-08-11T20:32:20.736Z,23.22
2022-08-11T20:34:47.254Z,23.20
2022-08-11T20:37:14.476Z,23.20
2022-08-11T20:39:43.618Z,23.18
2022-08-11T20:42:12.875Z,23.18
2022-08-11T20:44:41.071Z,23.18
2022-08-11T20:47:13.100Z,23.17
2022-08-11T20:49:51.371Z,23.17
2022-08-11T20:52:28.816Z,23.13
2022-08-11T20:54:55.608Z,23.12
2022-08-11T20:57:54.434Z,23.11
2022-08-11T21:00:11.902Z,23.11
2022-08-11T21:02:39.071Z,23.12
2022-08-11T21:05:05.714Z,23.09
2022-08-11T21:07:35.157Z,23.10
2022-08-11T21:10:09.915Z,23.11
2022-08-11T21:12:41.998Z,23.09
2022-08-11T21:15:11.772Z,23.08
2022-08-11T21:17:44.940Z,23.08
2022-08-11T21:20:29.147Z,23.07
2022-08-11T21:23:05.479Z,23.06
2022-08-11T21:25:36.803Z,23.04
2022-08-11T21:28:09.269Z,23.04
2022-08-11T21:30:36.751Z,23.02
2022-08-11T21:33:03.942Z,23.03
2022-08-11T21:35:32.611Z,23.02
2022-08-11T21:38:02.313Z,23.01
2022-08-11T21:40:34.962Z,23.00
2022-08-11T21:43:03.606Z,22.98
2022-08-11T21:45:34.057Z,22.99
2022-08-11T21:48:01.686Z,22.98
2022-08-11T21:50:28.407Z,22.97
2022-08-11T21:52:57.551Z,22.96
2022-08-11T21:55:24.941Z,22.95
2022-08-11T21:57:53.505Z,22.93
2022-08-11T22:00:20.211Z,22.91
2022-08-11T22:02:49.012Z,22.91
2022-08-11T22:05:21.077Z,22.90
2022-08-11T22:07:47.695Z,22.88
2022-08-11T22:10:40.209Z,22.87
2022-08-11T22:13:01.407Z,22.85
2022-08-11T22:15:28.014Z,22.86
2022-08-11T22:17:57.989Z,22.85
2022-08-11T22:20:27.385Z,22.86
2022-08-11T22:22:55.301Z,22.84
2022-08-11T22:25:24.347Z,22.83
2022-08-11T22:28:04.714Z,22.82
2022-08-11T22:30:32.034Z,22.82
2022-08-11T22:33:02.054Z,22.80
2022-08-11T22:35:30.637Z,22.78
2022-08-11T22:37:58.783Z,22.76
2022-08-11T22:40:25.546Z,22.76
2022-08-11T22:42:52.100Z,22.75
2022-08-11T22:45:18.801Z,22.75
2022-08-11T22:47:47.974Z,22.74
2022-08-11T22:50:16.651Z,22.74
2022-08-11T22:52:43.671Z,22.73
2022-08-11T22:55:10.461Z,22.72
2022-08-11T22:57:38.580Z,22.71
2022-08-11T23:00:06.136Z,22.70
2022-08-11T23:02:33.627Z,22.69
2022-08-11T23:05:01.121Z,22.70
2022-08-11T23:07:50.882Z,22.68
2022-08-11T23:10:18.197Z,22.68
2022-08-11T23:12:46.873Z,22.67
2022-08-11T23:15:14.432Z,22.65
2022-08-11T23:17:41.184Z,22.65
2022-08-11T23:20:22.673Z,22.63
2022-08-11T23:22:57.584Z,22.62
2022-08-11T23:25:25.264Z,22.61
2022-08-11T23:27:52.800Z,22.61
2022-08-11T23:30:19.660Z,22.61
2022-08-11T23:32:51.149Z,22.59
2022-08-11T23:35:38.583Z,22.59
2022-08-11T23:38:07.168Z,22.58
2022-08-11T23:40:33.623Z,22.57
2022-08-11T23:43:00.820Z,22.56
2022-08-11T23:45:27.592Z,22.55
2022-08-11T23:47:54.264Z,22.55
2022-08-11T23:50:20.805Z,22.53
2022-08-11T23:52:47.771Z,22.52
2022-08-11T23:55:15.799Z,22.52
2022-08-11T23:57:49.273Z,22.51
